sensor_id;sensor_type;location;lat;lon;timestamp;P1;durP1;ratioP1;P2;durP2;ratioP2
64907;SDS011;69061;52.236;5.188;2024-03-17T00:00:15;29.63;;;13.27;;
64907;SDS011;69061;52.236;5.188;2024-03-17T00:02:43;43.55;;;14.85;;
64907;SDS011;69061;52.236;5.188;2024-03-17T00:05:10;30.65;;;13.02;;
64907;SDS011;69061;52.236;5.188;2024-03-17T00:07:40;25.85;;;14.00;;
64907;SDS011;69061;52.236;5.188;2024-03-17T00:10:07;27.38;;;12.88;;
64907;SDS011;69061;52.236;5.188;2024-03-17T00:12:35;29.65;;;12.73;;
64907;SDS011;69061;52.236;5.188;2024-03-17T00:15:02;28.40;;;13.63;;
64907;SDS011;69061;52.236;5.188;2024-03-17T00:17:32;29.50;;;13.65;;
64907;SDS011;69061;52.236;5.188;2024-03-17T00:20:00;35.33;;;15.48;;
64907;SDS011;69061;52.236;5.188;2024-03-17T00:22:33;25.52;;;13.85;;
64907;SDS011;69061;52.236;5.188;2024-03-17T00:25:07;26.30;;;14.20;;
64907;SDS011;69061;52.236;5.188;2024-03-17T00:27:35;30.73;;;15.00;;
64907;SDS011;69061;52.236;5.188;2024-03-17T00:30:09;24.10;;;14.10;;
64907;SDS011;69061;52.236;5.188;2024-03-17T00:32:38;28.10;;;12.73;;
64907;SDS011;69061;52.236;5.188;2024-03-17T00:35:05;29.10;;;13.20;;
64907;SDS011;69061;52.236;5.188;2024-03-17T00:37:39;25.85;;;12.52;;
64907;SDS011;69061;52.236;5.188;2024-03-17T00:40:09;31.13;;;13.10;;
64907;SDS011;69061;52.236;5.188;2024-03-17T00:42:41;29.92;;;12.65;;
64907;SDS011;69061;52.236;5.188;2024-03-17T00:45:08;44.03;;;14.80;;
64907;SDS011;69061;52.236;5.188;2024-03-17T00:47:36;28.50;;;13.30;;
64907;SDS011;69061;52.236;5.188;2024-03-17T00:50:12;33.15;;;11.65;;
64907;SDS011;69061;52.236;5.188;2024-03-17T00:52:39;24.15;;;11.98;;
64907;SDS011;69061;52.236;5.188;2024-03-17T00:55:05;36.17;;;13.60;;
64907;SDS011;69061;52.236;5.188;2024-03-17T00:57:36;34.92;;;12.88;;
64907;SDS011;69061;52.236;5.188;2024-03-17T01:00:02;33.03;;;13.25;;
64907;SDS011;69061;52.236;5.188;2024-03-17T01:02:33;25.55;;;13.63;;
64907;SDS011;69061;52.236;5.188;2024-03-17T01:04:58;30.35;;;13.25;;
64907;SDS011;69061;52.236;5.188;2024-03-17T01:07:25;24.58;;;13.35;;
64907;SDS011;69061;52.236;5.188;2024-03-17T01:09:52;27.83;;;12.27;;
64907;SDS011;69061;52.236;5.188;2024-03-17T01:12:20;29.88;;;12.50;;
64907;SDS011;69061;52.236;5.188;2024-03-17T01:14:49;36.53;;;13.00;;
64907;SDS011;69061;52.236;5.188;2024-03-17T01:17:15;35.10;;;13.25;;
64907;SDS011;69061;52.236;5.188;2024-03-17T01:19:44;29.40;;;13.55;;
64907;SDS011;69061;52.236;5.188;2024-03-17T01:22:11;25.08;;;11.85;;
64907;SDS011;69061;52.236;5.188;2024-03-17T01:24:37;24.35;;;11.80;;
64907;SDS011;69061;52.236;5.188;2024-03-17T01:27:11;26.90;;;12.35;;
64907;SDS011;69061;52.236;5.188;2024-03-17T01:29:39;21.75;;;11.60;;
64907;SDS011;69061;52.236;5.188;2024-03-17T01:32:08;27.77;;;11.82;;
64907;SDS011;69061;52.236;5.188;2024-03-17T01:34:33;27.17;;;10.65;;
64907;SDS011;69061;52.236;5.188;2024-03-17T01:37:00;27.45;;;11.18;;
64907;SDS011;69061;52.236;5.188;2024-03-17T01:39:26;24.65;;;10.45;;
64907;SDS011;69061;52.236;5.188;2024-03-17T01:41:53;25.30;;;11.77;;
64907;SDS011;69061;52.236;5.188;2024-03-17T01:44:22;19.17;;;10.40;;
64907;SDS011;69061;52.236;5.188;2024-03-17T01:46:50;26.08;;;10.45;;
64907;SDS011;69061;52.236;5.188;2024-03-17T01:49:20;22.75;;;10.73;;
64907;SDS011;69061;52.236;5.188;2024-03-17T01:51:48;21.48;;;9.90;;
64907;SDS011;69061;52.236;5.188;2024-03-17T01:54:15;25.60;;;10.25;;
64907;SDS011;69061;52.236;5.188;2024-03-17T01:56:43;24.50;;;10.82;;
64907;SDS011;69061;52.236;5.188;2024-03-17T01:59:09;23.67;;;10.02;;
64907;SDS011;69061;52.236;5.188;2024-03-17T02:01:36;40.15;;;11.52;;
64907;SDS011;69061;52.236;5.188;2024-03-17T02:04:03;21.25;;;10.25;;
64907;SDS011;69061;52.236;5.188;2024-03-17T02:06:33;26.58;;;11.32;;
64907;SDS011;69061;52.236;5.188;2024-03-17T02:08:59;25.70;;;10.05;;
64907;SDS011;69061;52.236;5.188;2024-03-17T02:11:26;28.52;;;10.90;;
64907;SDS011;69061;52.236;5.188;2024-03-17T02:13:53;25.98;;;10.15;;
64907;SDS011;69061;52.236;5.188;2024-03-17T02:16:20;23.42;;;11.07;;
64907;SDS011;69061;52.236;5.188;2024-03-17T02:18:46;21.55;;;9.85;;
64907;SDS011;69061;52.236;5.188;2024-03-17T02:21:14;23.58;;;10.20;;
64907;SDS011;69061;52.236;5.188;2024-03-17T02:23:42;21.83;;;11.70;;
64907;SDS011;69061;52.236;5.188;2024-03-17T02:26:09;25.88;;;11.32;;
64907;SDS011;69061;52.236;5.188;2024-03-17T02:28:39;23.60;;;10.88;;
64907;SDS011;69061;52.236;5.188;2024-03-17T02:31:07;22.13;;;10.23;;
64907;SDS011;69061;52.236;5.188;2024-03-17T02:33:35;23.20;;;10.55;;
64907;SDS011;69061;52.236;5.188;2024-03-17T02:36:03;22.88;;;10.38;;
64907;SDS011;69061;52.236;5.188;2024-03-17T02:38:32;32.22;;;11.93;;
64907;SDS011;69061;52.236;5.188;2024-03-17T02:41:19;28.88;;;10.45;;
64907;SDS011;69061;52.236;5.188;2024-03-17T02:43:46;26.85;;;11.57;;
64907;SDS011;69061;52.236;5.188;2024-03-17T02:46:13;25.73;;;12.20;;
64907;SDS011;69061;52.236;5.188;2024-03-17T02:48:40;26.90;;;12.40;;
64907;SDS011;69061;52.236;5.188;2024-03-17T02:51:10;29.85;;;11.90;;
64907;SDS011;69061;52.236;5.188;2024-03-17T02:53:38;21.15;;;11.15;;
64907;SDS011;69061;52.236;5.188;2024-03-17T02:56:07;25.27;;;12.35;;
64907;SDS011;69061;52.236;5.188;2024-03-17T02:58:36;21.60;;;10.07;;
64907;SDS011;69061;52.236;5.188;2024-03-17T03:01:05;26.63;;;12.77;;
64907;SDS011;69061;52.236;5.188;2024-03-17T03:03:32;24.10;;;11.18;;
64907;SDS011;69061;52.236;5.188;2024-03-17T03:06:02;25.67;;;12.13;;
64907;SDS011;69061;52.236;5.188;2024-03-17T03:08:35;22.73;;;11.70;;
64907;SDS011;69061;52.236;5.188;2024-03-17T03:11:03;28.15;;;10.98;;
64907;SDS011;69061;52.236;5.188;2024-03-17T03:13:32;27.25;;;12.13;;
64907;SDS011;69061;52.236;5.188;2024-03-17T03:16:01;27.25;;;11.68;;
64907;SDS011;69061;52.236;5.188;2024-03-17T03:18:28;20.75;;;11.13;;
64907;SDS011;69061;52.236;5.188;2024-03-17T03:20:57;27.80;;;11.07;;
64907;SDS011;69061;52.236;5.188;2024-03-17T03:23:24;27.35;;;11.85;;
64907;SDS011;69061;52.236;5.188;2024-03-17T03:25:56;28.50;;;14.13;;
64907;SDS011;69061;52.236;5.188;2024-03-17T03:28:25;28.08;;;10.48;;
64907;SDS011;69061;52.236;5.188;2024-03-17T03:30:53;21.45;;;11.18;;
64907;SDS011;69061;52.236;5.188;2024-03-17T03:33:23;26.23;;;11.13;;
64907;SDS011;69061;52.236;5.188;2024-03-17T03:35:50;23.30;;;10.98;;
64907;SDS011;69061;52.236;5.188;2024-03-17T03:38:17;20.77;;;10.80;;
64907;SDS011;69061;52.236;5.188;2024-03-17T03:40:44;25.65;;;12.68;;
64907;SDS011;69061;52.236;5.188;2024-03-17T03:43:13;27.35;;;11.55;;
64907;SDS011;69061;52.236;5.188;2024-03-17T03:45:40;29.67;;;12.50;;
64907;SDS011;69061;52.236;5.188;2024-03-17T03:48:07;31.60;;;12.13;;
64907;SDS011;69061;52.236;5.188;2024-03-17T03:50:40;22.70;;;12.68;;
64907;SDS011;69061;52.236;5.188;2024-03-17T03:53:06;24.02;;;12.73;;
64907;SDS011;69061;52.236;5.188;2024-03-17T03:55:33;29.98;;;13.43;;
64907;SDS011;69061;52.236;5.188;2024-03-17T03:58:00;29.88;;;13.13;;
64907;SDS011;69061;52.236;5.188;2024-03-17T04:00:29;26.15;;;13.82;;
64907;SDS011;69061;52.236;5.188;2024-03-17T04:02:58;25.50;;;12.25;;
64907;SDS011;69061;52.236;5.188;2024-03-17T04:05:26;27.05;;;13.40;;
64907;SDS011;69061;52.236;5.188;2024-03-17T04:07:55;23.00;;;11.63;;
64907;SDS011;69061;52.236;5.188;2024-03-17T04:10:23;30.98;;;14.15;;
64907;SDS011;69061;52.236;5.188;2024-03-17T04:12:50;26.08;;;13.68;;
64907;SDS011;69061;52.236;5.188;2024-03-17T04:15:17;28.98;;;14.10;;
64907;SDS011;69061;52.236;5.188;2024-03-17T04:17:45;29.02;;;13.43;;
64907;SDS011;69061;52.236;5.188;2024-03-17T04:20:12;26.15;;;13.10;;
64907;SDS011;69061;52.236;5.188;2024-03-17T04:22:40;26.13;;;12.90;;
64907;SDS011;69061;52.236;5.188;2024-03-17T04:25:09;25.60;;;13.60;;
64907;SDS011;69061;52.236;5.188;2024-03-17T04:27:36;27.52;;;13.90;;
64907;SDS011;69061;52.236;5.188;2024-03-17T04:30:04;29.50;;;14.57;;
64907;SDS011;69061;52.236;5.188;2024-03-17T04:32:32;34.95;;;15.00;;
64907;SDS011;69061;52.236;5.188;2024-03-17T04:34:59;42.63;;;17.00;;
64907;SDS011;69061;52.236;5.188;2024-03-17T04:37:27;22.92;;;13.95;;
64907;SDS011;69061;52.236;5.188;2024-03-17T04:39:55;37.60;;;15.60;;
64907;SDS011;69061;52.236;5.188;2024-03-17T04:42:24;34.72;;;15.30;;
64907;SDS011;69061;52.236;5.188;2024-03-17T04:44:51;31.20;;;14.25;;
64907;SDS011;69061;52.236;5.188;2024-03-17T04:47:19;32.78;;;15.73;;
64907;SDS011;69061;52.236;5.188;2024-03-17T04:49:47;29.27;;;13.95;;
64907;SDS011;69061;52.236;5.188;2024-03-17T04:52:14;29.25;;;15.18;;
64907;SDS011;69061;52.236;5.188;2024-03-17T04:54:41;30.15;;;15.88;;
64907;SDS011;69061;52.236;5.188;2024-03-17T04:57:08;30.95;;;16.25;;
64907;SDS011;69061;52.236;5.188;2024-03-17T04:59:36;34.63;;;15.68;;
64907;SDS011;69061;52.236;5.188;2024-03-17T05:02:03;26.48;;;14.45;;
64907;SDS011;69061;52.236;5.188;2024-03-17T05:04:30;25.90;;;13.98;;
64907;SDS011;69061;52.236;5.188;2024-03-17T05:06:57;33.47;;;15.48;;
64907;SDS011;69061;52.236;5.188;2024-03-17T05:09:24;29.38;;;15.43;;
64907;SDS011;69061;52.236;5.188;2024-03-17T05:11:52;32.25;;;15.18;;
64907;SDS011;69061;52.236;5.188;2024-03-17T05:14:19;29.63;;;15.38;;
64907;SDS011;69061;52.236;5.188;2024-03-17T05:16:51;32.67;;;16.48;;
64907;SDS011;69061;52.236;5.188;2024-03-17T05:19:18;31.50;;;14.77;;
64907;SDS011;69061;52.236;5.188;2024-03-17T05:21:45;34.70;;;15.27;;
64907;SDS011;69061;52.236;5.188;2024-03-17T05:24:12;34.75;;;17.00;;
64907;SDS011;69061;52.236;5.188;2024-03-17T05:26:39;28.70;;;15.50;;
64907;SDS011;69061;52.236;5.188;2024-03-17T05:29:08;33.13;;;15.98;;
64907;SDS011;69061;52.236;5.188;2024-03-17T05:31:35;32.95;;;16.50;;
64907;SDS011;69061;52.236;5.188;2024-03-17T05:34:05;31.50;;;14.93;;
64907;SDS011;69061;52.236;5.188;2024-03-17T05:36:32;27.20;;;15.68;;
64907;SDS011;69061;52.236;5.188;2024-03-17T05:38:59;28.98;;;14.43;;
64907;SDS011;69061;52.236;5.188;2024-03-17T05:41:27;29.70;;;14.60;;
64907;SDS011;69061;52.236;5.188;2024-03-17T05:43:55;23.48;;;14.57;;
64907;SDS011;69061;52.236;5.188;2024-03-17T05:46:23;34.60;;;14.80;;
64907;SDS011;69061;52.236;5.188;2024-03-17T05:48:51;29.70;;;16.48;;
64907;SDS011;69061;52.236;5.188;2024-03-17T05:51:19;25.33;;;13.45;;
64907;SDS011;69061;52.236;5.188;2024-03-17T05:53:46;29.90;;;13.25;;
64907;SDS011;69061;52.236;5.188;2024-03-17T05:56:13;25.45;;;13.75;;
64907;SDS011;69061;52.236;5.188;2024-03-17T05:58:41;29.83;;;14.23;;
64907;SDS011;69061;52.236;5.188;2024-03-17T06:01:08;27.73;;;13.02;;
64907;SDS011;69061;52.236;5.188;2024-03-17T06:03:36;29.58;;;15.20;;
64907;SDS011;69061;52.236;5.188;2024-03-17T06:06:04;35.35;;;15.82;;
64907;SDS011;69061;52.236;5.188;2024-03-17T06:08:36;30.08;;;15.82;;
64907;SDS011;69061;52.236;5.188;2024-03-17T06:11:04;32.50;;;13.68;;
64907;SDS011;69061;52.236;5.188;2024-03-17T06:13:31;28.35;;;14.55;;
64907;SDS011;69061;52.236;5.188;2024-03-17T06:15:58;26.70;;;14.60;;
64907;SDS011;69061;52.236;5.188;2024-03-17T06:18:25;28.17;;;14.43;;
64907;SDS011;69061;52.236;5.188;2024-03-17T06:20:52;28.63;;;14.60;;
64907;SDS011;69061;52.236;5.188;2024-03-17T06:23:23;31.33;;;14.35;;
64907;SDS011;69061;52.236;5.188;2024-03-17T06:25:51;29.60;;;14.93;;
64907;SDS011;69061;52.236;5.188;2024-03-17T06:28:19;27.52;;;14.13;;
64907;SDS011;69061;52.236;5.188;2024-03-17T06:30:47;30.65;;;14.48;;
64907;SDS011;69061;52.236;5.188;2024-03-17T06:33:21;29.13;;;17.27;;
64907;SDS011;69061;52.236;5.188;2024-03-17T06:35:48;36.05;;;15.20;;
64907;SDS011;69061;52.236;5.188;2024-03-17T06:38:14;28.20;;;15.15;;
64907;SDS011;69061;52.236;5.188;2024-03-17T06:40:41;31.35;;;15.98;;
64907;SDS011;69061;52.236;5.188;2024-03-17T06:43:10;32.40;;;16.33;;
64907;SDS011;69061;52.236;5.188;2024-03-17T06:45:36;29.33;;;15.18;;
64907;SDS011;69061;52.236;5.188;2024-03-17T06:48:03;30.33;;;14.70;;
64907;SDS011;69061;52.236;5.188;2024-03-17T06:50:32;24.98;;;14.02;;
64907;SDS011;69061;52.236;5.188;2024-03-17T06:53:00;28.90;;;15.77;;
64907;SDS011;69061;52.236;5.188;2024-03-17T06:55:27;25.40;;;14.95;;
64907;SDS011;69061;52.236;5.188;2024-03-17T06:57:53;40.90;;;17.15;;
64907;SDS011;69061;52.236;5.188;2024-03-17T07:00:21;33.90;;;16.20;;
64907;SDS011;69061;52.236;5.188;2024-03-17T07:02:50;26.40;;;14.65;;
64907;SDS011;69061;52.236;5.188;2024-03-17T07:05:17;36.67;;;16.52;;
64907;SDS011;69061;52.236;5.188;2024-03-17T07:07:44;31.83;;;17.92;;
64907;SDS011;69061;52.236;5.188;2024-03-17T07:10:11;37.70;;;16.92;;
64907;SDS011;69061;52.236;5.188;2024-03-17T07:12:40;26.33;;;16.23;;
64907;SDS011;69061;52.236;5.188;2024-03-17T07:15:10;26.13;;;15.65;;
64907;SDS011;69061;52.236;5.188;2024-03-17T07:17:39;29.55;;;15.95;;
64907;SDS011;69061;52.236;5.188;2024-03-17T07:20:07;28.92;;;15.10;;
64907;SDS011;69061;52.236;5.188;2024-03-17T07:22:37;26.38;;;14.88;;
64907;SDS011;69061;52.236;5.188;2024-03-17T07:25:05;31.77;;;14.65;;
64907;SDS011;69061;52.236;5.188;2024-03-17T07:27:31;32.03;;;16.85;;
64907;SDS011;69061;52.236;5.188;2024-03-17T07:29:59;31.50;;;17.70;;
64907;SDS011;69061;52.236;5.188;2024-03-17T07:32:26;29.67;;;16.08;;
64907;SDS011;69061;52.236;5.188;2024-03-17T07:34:53;29.42;;;16.92;;
64907;SDS011;69061;52.236;5.188;2024-03-17T07:37:20;30.38;;;16.48;;
64907;SDS011;69061;52.236;5.188;2024-03-17T07:39:47;31.38;;;15.95;;
64907;SDS011;69061;52.236;5.188;2024-03-17T07:42:14;28.45;;;15.77;;
64907;SDS011;69061;52.236;5.188;2024-03-17T07:44:43;28.27;;;14.57;;
64907;SDS011;69061;52.236;5.188;2024-03-17T07:47:10;29.05;;;16.00;;
64907;SDS011;69061;52.236;5.188;2024-03-17T07:49:37;29.25;;;15.52;;
64907;SDS011;69061;52.236;5.188;2024-03-17T07:52:06;29.42;;;17.30;;
64907;SDS011;69061;52.236;5.188;2024-03-17T07:54:32;30.23;;;15.93;;
64907;SDS011;69061;52.236;5.188;2024-03-17T07:57:00;28.90;;;15.30;;
64907;SDS011;69061;52.236;5.188;2024-03-17T07:59:27;31.83;;;16.27;;
64907;SDS011;69061;52.236;5.188;2024-03-17T08:01:54;27.83;;;17.23;;
64907;SDS011;69061;52.236;5.188;2024-03-17T08:04:22;28.88;;;16.40;;
64907;SDS011;69061;52.236;5.188;2024-03-17T08:06:49;35.17;;;16.65;;
64907;SDS011;69061;52.236;5.188;2024-03-17T08:09:17;31.13;;;17.20;;
64907;SDS011;69061;52.236;5.188;2024-03-17T08:11:44;29.17;;;16.15;;
64907;SDS011;69061;52.236;5.188;2024-03-17T08:14:11;36.17;;;18.58;;
64907;SDS011;69061;52.236;5.188;2024-03-17T08:16:42;30.48;;;16.80;;
64907;SDS011;69061;52.236;5.188;2024-03-17T08:19:09;29.73;;;16.67;;
64907;SDS011;69061;52.236;5.188;2024-03-17T08:21:35;30.45;;;15.93;;
64907;SDS011;69061;52.236;5.188;2024-03-17T08:24:02;26.23;;;16.75;;
64907;SDS011;69061;52.236;5.188;2024-03-17T08:26:30;40.13;;;18.73;;
64907;SDS011;69061;52.236;5.188;2024-03-17T08:28:57;28.45;;;16.95;;
64907;SDS011;69061;52.236;5.188;2024-03-17T08:31:24;33.95;;;17.38;;
64907;SDS011;69061;52.236;5.188;2024-03-17T08:33:51;35.13;;;16.70;;
64907;SDS011;69061;52.236;5.188;2024-03-17T08:36:17;35.50;;;18.67;;
64907;SDS011;69061;52.236;5.188;2024-03-17T08:38:45;40.58;;;17.13;;
64907;SDS011;69061;52.236;5.188;2024-03-17T08:41:12;31.90;;;17.25;;
64907;SDS011;69061;52.236;5.188;2024-03-17T08:43:41;30.65;;;16.35;;
64907;SDS011;69061;52.236;5.188;2024-03-17T08:46:08;29.67;;;15.55;;
64907;SDS011;69061;52.236;5.188;2024-03-17T08:48:37;34.00;;;16.08;;
64907;SDS011;69061;52.236;5.188;2024-03-17T08:51:05;25.50;;;15.77;;
64907;SDS011;69061;52.236;5.188;2024-03-17T08:53:34;28.23;;;15.52;;
64907;SDS011;69061;52.236;5.188;2024-03-17T08:56:02;30.52;;;17.13;;
64907;SDS011;69061;52.236;5.188;2024-03-17T08:58:31;26.73;;;16.13;;
64907;SDS011;69061;52.236;5.188;2024-03-17T09:01:02;36.38;;;16.60;;
64907;SDS011;69061;52.236;5.188;2024-03-17T09:03:31;33.05;;;16.63;;
64907;SDS011;69061;52.236;5.188;2024-03-17T09:05:58;27.10;;;14.95;;
64907;SDS011;69061;52.236;5.188;2024-03-17T09:08:26;29.85;;;14.65;;
64907;SDS011;69061;52.236;5.188;2024-03-17T09:10:53;35.28;;;16.13;;
64907;SDS011;69061;52.236;5.188;2024-03-17T09:13:21;31.25;;;16.13;;
64907;SDS011;69061;52.236;5.188;2024-03-17T09:15:52;35.08;;;17.13;;
64907;SDS011;69061;52.236;5.188;2024-03-17T09:18:23;31.30;;;16.27;;
64907;SDS011;69061;52.236;5.188;2024-03-17T09:20:56;32.50;;;17.73;;
64907;SDS011;69061;52.236;5.188;2024-03-17T09:23:24;36.38;;;16.73;;
64907;SDS011;69061;52.236;5.188;2024-03-17T09:25:54;29.48;;;16.35;;
64907;SDS011;69061;52.236;5.188;2024-03-17T09:28:22;34.70;;;17.73;;
64907;SDS011;69061;52.236;5.188;2024-03-17T09:30:48;26.65;;;15.40;;
64907;SDS011;69061;52.236;5.188;2024-03-17T09:33:17;34.80;;;19.23;;
64907;SDS011;69061;52.236;5.188;2024-03-17T09:35:53;35.53;;;17.88;;
64907;SDS011;69061;52.236;5.188;2024-03-17T09:38:21;34.38;;;18.33;;
64907;SDS011;69061;52.236;5.188;2024-03-17T09:40:48;30.08;;;16.45;;
64907;SDS011;69061;52.236;5.188;2024-03-17T09:43:17;35.13;;;17.98;;
64907;SDS011;69061;52.236;5.188;2024-03-17T09:45:44;32.58;;;18.08;;
64907;SDS011;69061;52.236;5.188;2024-03-17T09:48:13;34.45;;;16.75;;
64907;SDS011;69061;52.236;5.188;2024-03-17T09:50:42;39.45;;;17.92;;
64907;SDS011;69061;52.236;5.188;2024-03-17T09:53:16;31.10;;;17.20;;
64907;SDS011;69061;52.236;5.188;2024-03-17T09:55:43;31.02;;;17.00;;
64907;SDS011;69061;52.236;5.188;2024-03-17T09:58:10;28.50;;;16.88;;
64907;SDS011;69061;52.236;5.188;2024-03-17T10:00:42;25.60;;;14.82;;
64907;SDS011;69061;52.236;5.188;2024-03-17T10:03:09;30.42;;;15.70;;
64907;SDS011;69061;52.236;5.188;2024-03-17T10:05:38;31.30;;;17.65;;
64907;SDS011;69061;52.236;5.188;2024-03-17T10:08:05;30.17;;;16.20;;
64907;SDS011;69061;52.236;5.188;2024-03-17T10:10:34;33.33;;;17.65;;
64907;SDS011;69061;52.236;5.188;2024-03-17T10:13:01;34.10;;;17.38;;
64907;SDS011;69061;52.236;5.188;2024-03-17T10:15:28;28.05;;;14.40;;
64907;SDS011;69061;52.236;5.188;2024-03-17T10:17:55;33.35;;;16.30;;
64907;SDS011;69061;52.236;5.188;2024-03-17T10:20:24;27.85;;;15.55;;
64907;SDS011;69061;52.236;5.188;2024-03-17T10:22:57;35.35;;;15.63;;
64907;SDS011;69061;52.236;5.188;2024-03-17T10:25:25;32.47;;;15.85;;
64907;SDS011;69061;52.236;5.188;2024-03-17T10:27:54;29.67;;;15.90;;
64907;SDS011;69061;52.236;5.188;2024-03-17T10:30:23;26.73;;;14.45;;
64907;SDS011;69061;52.236;5.188;2024-03-17T10:32:55;34.03;;;18.33;;
64907;SDS011;69061;52.236;5.188;2024-03-17T10:35:26;29.52;;;16.35;;
64907;SDS011;69061;52.236;5.188;2024-03-17T10:37:56;27.55;;;14.52;;
64907;SDS011;69061;52.236;5.188;2024-03-17T10:40:24;27.38;;;15.35;;
64907;SDS011;69061;52.236;5.188;2024-03-17T10:42:51;27.73;;;14.57;;
64907;SDS011;69061;52.236;5.188;2024-03-17T10:45:20;29.73;;;15.07;;
64907;SDS011;69061;52.236;5.188;2024-03-17T10:47:47;28.70;;;14.52;;
64907;SDS011;69061;52.236;5.188;2024-03-17T10:50:17;24.80;;;14.23;;
64907;SDS011;69061;52.236;5.188;2024-03-17T10:52:47;49.65;;;19.92;;
64907;SDS011;69061;52.236;5.188;2024-03-17T10:55:21;25.42;;;14.88;;
64907;SDS011;69061;52.236;5.188;2024-03-17T10:57:49;29.38;;;14.98;;
64907;SDS011;69061;52.236;5.188;2024-03-17T11:00:18;29.42;;;15.27;;
64907;SDS011;69061;52.236;5.188;2024-03-17T11:02:48;25.63;;;14.48;;
64907;SDS011;69061;52.236;5.188;2024-03-17T11:05:18;23.42;;;13.82;;
64907;SDS011;69061;52.236;5.188;2024-03-17T11:07:46;28.88;;;14.90;;
64907;SDS011;69061;52.236;5.188;2024-03-17T11:10:15;27.35;;;14.75;;
64907;SDS011;69061;52.236;5.188;2024-03-17T11:12:44;24.27;;;14.38;;
64907;SDS011;69061;52.236;5.188;2024-03-17T11:21:00;26.08;;;14.43;;
64907;SDS011;69061;52.236;5.188;2024-03-17T11:23:33;25.73;;;13.90;;
64907;SDS011;69061;52.236;5.188;2024-03-17T11:26:02;30.42;;;14.15;;
64907;SDS011;69061;52.236;5.188;2024-03-17T11:28:46;22.38;;;13.18;;
64907;SDS011;69061;52.236;5.188;2024-03-17T11:34:01;21.85;;;11.32;;
64907;SDS011;69061;52.236;5.188;2024-03-17T11:36:30;23.38;;;10.63;;
64907;SDS011;69061;52.236;5.188;2024-03-17T11:38:58;22.05;;;11.13;;
64907;SDS011;69061;52.236;5.188;2024-03-17T11:41:35;21.20;;;11.82;;
64907;SDS011;69061;52.236;5.188;2024-03-17T11:44:13;22.38;;;12.00;;
64907;SDS011;69061;52.236;5.188;2024-03-17T11:46:41;22.30;;;11.30;;
64907;SDS011;69061;52.236;5.188;2024-03-17T11:49:11;19.13;;;12.00;;
64907;SDS011;69061;52.236;5.188;2024-03-17T11:51:44;24.85;;;13.13;;
64907;SDS011;69061;52.236;5.188;2024-03-17T11:56:43;29.13;;;12.73;;
64907;SDS011;69061;52.236;5.188;2024-03-17T11:59:10;23.80;;;13.77;;
64907;SDS011;69061;52.236;5.188;2024-03-17T12:01:37;22.85;;;12.52;;
64907;SDS011;69061;52.236;5.188;2024-03-17T12:04:04;21.95;;;12.27;;
64907;SDS011;69061;52.236;5.188;2024-03-17T12:06:32;18.95;;;12.50;;
64907;SDS011;69061;52.236;5.188;2024-03-17T12:09:07;24.23;;;12.95;;
64907;SDS011;69061;52.236;5.188;2024-03-17T12:11:36;24.17;;;12.52;;
64907;SDS011;69061;52.236;5.188;2024-03-17T12:14:09;27.75;;;14.60;;
64907;SDS011;69061;52.236;5.188;2024-03-17T12:16:46;30.02;;;15.70;;
64907;SDS011;69061;52.236;5.188;2024-03-17T12:19:13;26.98;;;14.93;;
64907;SDS011;69061;52.236;5.188;2024-03-17T12:21:43;23.33;;;13.02;;
64907;SDS011;69061;52.236;5.188;2024-03-17T12:24:12;27.40;;;15.10;;
64907;SDS011;69061;52.236;5.188;2024-03-17T12:26:42;24.95;;;13.57;;
64907;SDS011;69061;52.236;5.188;2024-03-17T12:29:24;29.85;;;14.88;;
64907;SDS011;69061;52.236;5.188;2024-03-17T12:34:18;30.00;;;16.27;;
64907;SDS011;69061;52.236;5.188;2024-03-17T12:36:48;32.78;;;16.60;;
64907;SDS011;69061;52.236;5.188;2024-03-17T12:39:18;30.38;;;16.20;;
64907;SDS011;69061;52.236;5.188;2024-03-17T12:41:46;31.13;;;15.40;;
64907;SDS011;69061;52.236;5.188;2024-03-17T12:44:27;27.52;;;14.93;;
64907;SDS011;69061;52.236;5.188;2024-03-17T12:46:55;26.02;;;15.90;;
64907;SDS011;69061;52.236;5.188;2024-03-17T12:49:22;30.33;;;14.60;;
64907;SDS011;69061;52.236;5.188;2024-03-17T12:51:51;30.15;;;14.98;;
64907;SDS011;69061;52.236;5.188;2024-03-17T12:54:19;32.15;;;16.85;;
64907;SDS011;69061;52.236;5.188;2024-03-17T12:56:48;32.45;;;16.58;;
64907;SDS011;69061;52.236;5.188;2024-03-17T12:59:39;34.97;;;16.70;;
64907;SDS011;69061;52.236;5.188;2024-03-17T13:02:23;29.38;;;16.08;;
64907;SDS011;69061;52.236;5.188;2024-03-17T13:05:10;24.95;;;14.05;;
64907;SDS011;69061;52.236;5.188;2024-03-17T13:07:43;29.25;;;17.30;;
64907;SDS011;69061;52.236;5.188;2024-03-17T13:10:11;30.88;;;15.70;;
64907;SDS011;69061;52.236;5.188;2024-03-17T13:12:39;33.88;;;16.10;;
64907;SDS011;69061;52.236;5.188;2024-03-17T13:15:06;33.38;;;17.17;;
64907;SDS011;69061;52.236;5.188;2024-03-17T13:17:36;30.70;;;16.52;;
64907;SDS011;69061;52.236;5.188;2024-03-17T13:20:03;31.00;;;16.45;;
64907;SDS011;69061;52.236;5.188;2024-03-17T13:22:33;34.25;;;16.13;;
64907;SDS011;69061;52.236;5.188;2024-03-17T13:25:02;33.35;;;16.80;;
64907;SDS011;69061;52.236;5.188;2024-03-17T13:27:29;27.15;;;15.32;;
64907;SDS011;69061;52.236;5.188;2024-03-17T13:29:55;28.67;;;16.02;;
64907;SDS011;69061;52.236;5.188;2024-03-17T13:32:22;34.22;;;18.15;;
64907;SDS011;69061;52.236;5.188;2024-03-17T13:34:49;26.70;;;16.67;;
64907;SDS011;69061;52.236;5.188;2024-03-17T13:37:16;29.33;;;15.52;;
64907;SDS011;69061;52.236;5.188;2024-03-17T13:39:43;29.33;;;16.00;;
64907;SDS011;69061;52.236;5.188;2024-03-17T13:42:11;28.67;;;16.30;;
64907;SDS011;69061;52.236;5.188;2024-03-17T13:44:37;32.42;;;16.52;;
64907;SDS011;69061;52.236;5.188;2024-03-17T13:47:04;31.35;;;15.05;;
64907;SDS011;69061;52.236;5.188;2024-03-17T13:49:31;30.08;;;15.82;;
64907;SDS011;69061;52.236;5.188;2024-03-17T13:51:59;27.25;;;14.45;;
64907;SDS011;69061;52.236;5.188;2024-03-17T13:54:25;30.65;;;15.93;;
64907;SDS011;69061;52.236;5.188;2024-03-17T13:56:52;31.02;;;16.40;;
64907;SDS011;69061;52.236;5.188;2024-03-17T13:59:21;26.75;;;13.00;;
64907;SDS011;69061;52.236;5.188;2024-03-17T14:01:49;71.15;;;17.08;;
64907;SDS011;69061;52.236;5.188;2024-03-17T14:04:16;35.88;;;16.17;;
64907;SDS011;69061;52.236;5.188;2024-03-17T14:06:44;33.45;;;16.70;;
64907;SDS011;69061;52.236;5.188;2024-03-17T14:09:11;27.65;;;14.70;;
64907;SDS011;69061;52.236;5.188;2024-03-17T14:11:39;36.58;;;15.95;;
64907;SDS011;69061;52.236;5.188;2024-03-17T14:14:06;35.80;;;15.57;;
64907;SDS011;69061;52.236;5.188;2024-03-17T14:16:34;25.75;;;14.20;;
64907;SDS011;69061;52.236;5.188;2024-03-17T14:19:01;30.25;;;15.65;;
64907;SDS011;69061;52.236;5.188;2024-03-17T14:21:28;28.23;;;14.30;;
64907;SDS011;69061;52.236;5.188;2024-03-17T14:23:55;31.77;;;16.50;;
64907;SDS011;69061;52.236;5.188;2024-03-17T14:26:22;24.73;;;14.45;;
64907;SDS011;69061;52.236;5.188;2024-03-17T14:28:49;26.08;;;14.75;;
64907;SDS011;69061;52.236;5.188;2024-03-17T14:31:16;34.30;;;16.50;;
64907;SDS011;69061;52.236;5.188;2024-03-17T14:33:45;31.38;;;15.52;;
64907;SDS011;69061;52.236;5.188;2024-03-17T14:36:11;26.25;;;14.35;;
64907;SDS011;69061;52.236;5.188;2024-03-17T14:38:38;31.63;;;16.10;;
64907;SDS011;69061;52.236;5.188;2024-03-17T14:41:05;32.13;;;15.23;;